Time;durP1;ratioP1;P1;durP2;ratioP2;P2;SDS_P1;SDS_P2;PMS_P1;PMS_P2;Temp;Humidity;BMP_temperature;BMP_pressure;BME280_temperature;BME280_humidity;BME280_pressure;Samples;Min_cycle;Max_cycle;Signal;HPM_P1;HPM_P2
2021/07/31 00:01:42;;;;;;;6.88;1.63;;;18.80;99.90;;;;;;4123927;28;20121;-72
2021/07/31 00:03:44;;;;;;;3.85;1.33;;;18.80;99.90;;;;;;4133909;28;20092;-72
2021/07/31 00:05:44;;;;;;;5.10;1.38;;;18.70;99.90;;;;;;4134445;28;20026;-72
2021/07/31 00:07:45;;;;;;;2.20;0.98;;;18.70;99.90;;;;;;4128804;28;20109;-72
2021/07/31 00:09:45;;;;;;;5.40;1.63;;;18.70;99.90;;;;;;4138223;28;20645;-72
2021/07/31 00:11:46;;;;;;;3.90;1.40;;;18.80;99.90;;;;;;4117562;28;20081;-73
2021/07/31 00:13:47;;;;;;;3.67;1.30;;;18.80;99.90;;;;;;4141089;28;20030;-73
2021/07/31 00:15:47;;;;;;;4.57;1.10;;;18.70;99.90;;;;;;4133390;28;20614;-73
2021/07/31 00:17:48;;;;;;;3.58;1.38;;;18.70;99.90;;;;;;4137795;28;20042;-73
2021/07/31 00:19:48;;;;;;;8.73;1.40;;;18.70;99.90;;;;;;4132672;28;20038;-72
2021/07/31 00:21:49;;;;;;;3.55;1.30;;;18.80;99.90;;;;;;4140707;28;20115;-72
2021/07/31 00:23:50;;;;;;;2.15;1.00;;;18.80;99.90;;;;;;4136604;28;20572;-73
2021/07/31 00:25:51;;;;;;;7.63;1.30;;;18.70;99.90;;;;;;4141999;28;20124;-72
2021/07/31 00:27:51;;;;;;;1.63;0.77;;;18.70;99.90;;;;;;4136858;28;20046;-73
2021/07/31 00:29:52;;;;;;;4.05;1.30;;;18.70;99.90;;;;;;4132846;28;20082;-73
2021/07/31 00:31:52;;;;;;;2.75;1.23;;;18.70;99.90;;;;;;4134489;28;20038;-72
2021/07/31 00:33:53;;;;;;;3.75;1.50;;;18.70;99.90;;;;;;4118193;28;20094;-73
2021/07/31 00:35:54;;;;;;;4.82;1.15;;;18.70;99.90;;;;;;4135552;28;20132;-73
2021/07/31 00:37:54;;;;;;;3.78;1.33;;;18.70;99.90;;;;;;4100543;28;20415;-73
2021/07/31 00:39:55;;;;;;;1.75;1.15;;;18.70;99.90;;;;;;4116686;28;20038;-73
2021/07/31 00:41:56;;;;;;;7.60;1.60;;;18.70;99.90;;;;;;4100730;28;20067;-73
2021/07/31 00:43:56;;;;;;;8.18;1.50;;;18.70;99.90;;;;;;4122998;28;20031;-73
2021/07/31 00:45:57;;;;;;;3.95;1.40;;;18.70;99.90;;;;;;4136960;28;20034;-72
2021/07/31 00:47:58;;;;;;;6.53;1.38;;;18.70;99.90;;;;;;4120755;28;20039;-73
2021/07/31 00:49:59;;;;;;;4.57;1.40;;;18.80;99.90;;;;;;4132065;28;20084;-73
2021/07/31 00:52:02;;;;;;;4.18;1.30;;;18.70;99.90;;;;;;4137093;28;20096;-72
2021/07/31 00:54:03;;;;;;;4.97;1.60;;;18.70;99.90;;;;;;4135774;28;21528;-72
2021/07/31 00:56:05;;;;;;;3.45;1.48;;;18.60;99.90;;;;;;4136041;28;20046;-73
2021/07/31 00:58:06;;;;;;;9.70;1.23;;;18.60;99.90;;;;;;4135901;28;20081;-72
2021/07/31 01:00:08;;;;;;;5.95;1.00;;;18.60;99.90;;;;;;4117964;28;20031;-73
2021/07/31 01:02:09;;;;;;;3.40;1.20;;;18.60;99.90;;;;;;4137814;28;20054;-73
2021/07/31 01:04:10;;;;;;;4.13;1.67;;;18.60;99.90;;;;;;4117239;28;20073;-73
2021/07/31 01:06:10;;;;;;;8.27;1.73;;;18.70;99.90;;;;;;4136646;28;20037;-73
2021/07/31 01:08:11;;;;;;;2.45;1.20;;;18.60;99.90;;;;;;4138817;28;20478;-72
2021/07/31 01:10:12;;;;;;;4.32;1.60;;;18.60;99.90;;;;;;4137487;28;20034;-72
2021/07/31 01:12:13;;;;;;;3.15;1.35;;;18.60;99.90;;;;;;4134816;28;20174;-73
2021/07/31 01:14:13;;;;;;;5.75;1.60;;;18.60;99.90;;;;;;4135244;28;20066;-73
2021/07/31 01:16:14;;;;;;;3.63;0.98;;;18.60;99.90;;;;;;4134294;28;20044;-72
2021/07/31 01:18:14;;;;;;;7.13;1.83;;;18.60;99.90;;;;;;4135257;28;20088;-73
2021/07/31 01:20:16;;;;;;;7.80;1.60;;;18.50;99.90;;;;;;4137462;28;20038;-73
2021/07/31 01:22:18;;;;;;;5.88;1.83;;;18.60;99.90;;;;;;4114164;28;20676;-72
2021/07/31 01:24:18;;;;;;;5.93;1.70;;;18.60;99.90;;;;;;4135235;28;20077;-73
2021/07/31 01:26:19;;;;;;;2.55;1.50;;;18.60;99.90;;;;;;4117331;28;20406;-72
2021/07/31 01:28:20;;;;;;;3.15;1.55;;;18.60;99.90;;;;;;4133826;28;20425;-72
2021/07/31 01:30:20;;;;;;;3.63;1.13;;;18.60;99.90;;;;;;4137384;28;20133;-73
2021/07/31 01:32:21;;;;;;;5.22;1.23;;;18.60;99.90;;;;;;4141933;28;20034;-73
2021/07/31 01:34:22;;;;;;;4.13;1.77;;;18.50;99.90;;;;;;4140634;28;20038;-72
2021/07/31 01:36:22;;;;;;;3.65;1.63;;;18.60;99.90;;;;;;4112753;28;20050;-73
2021/07/31 01:38:23;;;;;;;5.55;1.33;;;18.60;99.90;;;;;;4126050;28;20038;-73
2021/07/31 01:40:23;;;;;;;3.42;1.50;;;18.50;99.90;;;;;;4135484;28;20045;-72
2021/07/31 01:42:24;;;;;;;6.20;1.60;;;18.50;99.90;;;;;;4118182;28;20042;-73
2021/07/31 01:44:25;;;;;;;4.60;1.58;;;18.50;99.90;;;;;;4143478;28;20057;-73
2021/07/31 01:46:25;;;;;;;7.85;1.60;;;18.40;99.90;;;;;;4132046;28;20042;-73
2021/07/31 01:48:26;;;;;;;3.97;1.75;;;18.40;99.90;;;;;;4118518;28;20034;-73
2021/07/31 01:50:26;;;;;;;8.23;1.75;;;18.50;99.90;;;;;;4116792;28;20049;-73
2021/07/31 01:52:27;;;;;;;3.55;1.50;;;18.40;99.90;;;;;;4138529;28;20523;-72
2021/07/31 01:54:28;;;;;;;8.25;1.60;;;18.40;99.90;;;;;;4130214;28;20038;-72
2021/07/31 01:56:28;;;;;;;3.83;1.60;;;18.30;99.90;;;;;;4141022;28;20033;-72
2021/07/31 01:58:29;;;;;;;3.97;1.40;;;18.40;99.90;;;;;;4141915;28;20038;-72
2021/07/31 02:00:30;;;;;;;5.75;1.90;;;18.30;99.90;;;;;;4132483;28;20030;-72
2021/07/31 02:02:30;;;;;;;6.82;1.80;;;18.30;99.90;;;;;;4139929;28;20099;-73
2021/07/31 02:04:33;;;;;;;4.47;1.83;;;18.30;99.90;;;;;;4113653;28;20042;-72
2021/07/31 02:06:34;;;;;;;10.07;1.65;;;18.20;99.90;;;;;;4122613;28;20030;-72
2021/07/31 02:08:35;;;;;;;4.20;1.70;;;18.20;99.90;;;;;;4131629;28;20121;-72
2021/07/31 02:10:35;;;;;;;4.97;1.52;;;18.30;99.90;;;;;;4136250;28;20045;-72
2021/07/31 02:12:36;;;;;;;5.07;1.70;;;18.30;99.90;;;;;;4133984;28;20026;-72
2021/07/31 02:14:36;;;;;;;4.85;1.48;;;18.30;99.90;;;;;;4133129;28;20038;-73
2021/07/31 02:16:37;;;;;;;6.00;1.40;;;18.20;99.90;;;;;;4131881;28;20046;-72
2021/07/31 02:18:37;;;;;;;8.35;1.92;;;18.20;99.90;;;;;;4139015;28;20030;-73
2021/07/31 02:20:38;;;;;;;5.85;1.67;;;18.10;99.90;;;;;;4132237;28;20034;-73
2021/07/31 02:22:39;;;;;;;4.28;1.30;;;18.00;99.90;;;;;;4133132;28;20049;-72
2021/07/31 02:24:40;;;;;;;3.85;1.50;;;18.10;99.90;;;;;;4112611;28;20067;-72
2021/07/31 02:26:40;;;;;;;4.28;1.67;;;18.10;99.90;;;;;;4135114;28;20041;-72
2021/07/31 02:28:41;;;;;;;4.22;1.63;;;18.20;99.90;;;;;;4128000;28;20065;-72
2021/07/31 02:30:41;;;;;;;6.68;1.85;;;18.10;99.90;;;;;;4116660;28;20031;-72
2021/07/31 02:32:42;;;;;;;4.95;1.25;;;18.10;99.90;;;;;;4141686;28;20042;-72
2021/07/31 02:34:43;;;;;;;3.97;1.55;;;18.10;99.90;;;;;;4132160;28;20065;-72
2021/07/31 02:36:44;;;;;;;5.90;2.00;;;18.10;99.90;;;;;;4120553;28;20050;-72
2021/07/31 02:38:44;;;;;;;8.25;1.50;;;18.10;99.90;;;;;;4132931;28;20042;-73
2021/07/31 02:40:45;;;;;;;8.02;2.03;;;18.10;99.90;;;;;;4134138;28;20026;-72
2021/07/31 02:42:45;;;;;;;6.82;2.05;;;18.10;99.90;;;;;;4132286;28;20402;-72
2021/07/31 02:44:46;;;;;;;7.10;1.63;;;18.10;99.90;;;;;;4138535;28;20049;-73
2021/07/31 02:46:46;;;;;;;6.35;1.98;;;18.10;99.90;;;;;;4117914;28;20627;-73
2021/07/31 02:48:47;;;;;;;9.65;2.15;;;18.20;99.90;;;;;;4140309;28;20033;-73
2021/07/31 02:50:48;;;;;;;3.88;1.50;;;18.10;99.90;;;;;;4115609;28;20038;-72
2021/07/31 02:52:48;;;;;;;5.72;2.10;;;18.10;99.90;;;;;;4135315;28;20165;-73
2021/07/31 02:54:52;;;;;;;7.10;1.85;;;18.00;99.90;;;;;;4138158;28;20035;-72
2021/07/31 02:56:53;;;;;;;4.25;1.48;;;18.00;99.90;;;;;;4132215;28;20331;-72
2021/07/31 02:58:53;;;;;;;5.75;1.83;;;18.00;99.90;;;;;;4137017;28;20153;-73
2021/07/31 03:00:54;;;;;;;10.95;1.63;;;18.00;99.90;;;;;;4140702;28;20107;-72
2021/07/31 03:02:54;;;;;;;5.07;1.85;;;18.00;99.90;;;;;;4138858;28;20048;-73
2021/07/31 03:04:55;;;;;;;5.28;1.80;;;18.00;99.90;;;;;;4133035;28;20049;-73
2021/07/31 03:06:56;;;;;;;6.80;2.15;;;18.00;99.90;;;;;;4137708;28;20042;-73
2021/07/31 03:08:56;;;;;;;7.60;2.20;;;18.00;99.90;;;;;;4137199;28;20055;-73
2021/07/31 03:11:00;;;;;;;6.28;2.03;;;17.90;99.90;;;;;;4131822;28;20121;-73
2021/07/31 03:13:00;;;;;;;11.02;2.17;;;18.00;99.90;;;;;;4123339;28;20426;-72
2021/07/31 03:15:01;;;;;;;8.27;1.95;;;17.90;99.90;;;;;;4115643;28;20034;-73
2021/07/31 03:17:01;;;;;;;6.18;1.67;;;17.90;99.90;;;;;;4133952;28;20033;-72
2021/07/31 03:19:02;;;;;;;9.77;2.03;;;17.90;99.90;;;;;;4134127;28;20637;-73
2021/07/31 03:21:03;;;;;;;4.88;2.05;;;17.90;99.90;;;;;;4133246;28;20034;-72
2021/07/31 03:23:03;;;;;;;6.20;2.03;;;17.90;99.90;;;;;;4114795;28;20505;-72
2021/07/31 03:25:04;;;;;;;4.95;1.67;;;17.90;99.90;;;;;;4134676;28;20049;-72
2021/07/31 03:27:06;;;;;;;6.88;1.70;;;17.90;99.90;;;;;;4134351;28;20049;-72
2021/07/31 03:29:06;;;;;;;8.02;2.28;;;17.90;99.90;;;;;;4118130;28;20472;-72
2021/07/31 03:31:07;;;;;;;4.93;2.28;;;17.90;99.90;;;;;;4133329;28;20058;-72
2021/07/31 03:33:09;;;;;;;7.85;2.03;;;17.90;99.90;;;;;;4131740;28;20068;-73
2021/07/31 03:35:10;;;;;;;8.80;1.60;;;17.90;99.90;;;;;;4130108;28;20691;-72
2021/07/31 03:37:10;;;;;;;5.70;1.88;;;18.00;99.90;;;;;;4137907;28;20049;-73
2021/07/31 03:39:11;;;;;;;4.70;1.88;;;18.00;99.90;;;;;;4116741;28;20069;-72
2021/07/31 03:41:11;;;;;;;6.45;1.52;;;18.00;99.90;;;;;;4120945;28;20035;-72
2021/07/31 03:43:13;;;;;;;5.20;1.75;;;17.90;99.90;;;;;;4134842;28;20034;-73
2021/07/31 03:45:14;;;;;;;4.70;1.58;;;18.00;99.90;;;;;;4133437;28;20067;-73
2021/07/31 03:47:14;;;;;;;7.85;2.25;;;17.90;99.90;;;;;;4112865;28;20438;-73
2021/07/31 03:49:15;;;;;;;4.15;1.83;;;17.80;99.90;;;;;;4138280;28;20061;-72
2021/07/31 03:51:16;;;;;;;9.48;1.80;;;17.80;99.90;;;;;;4111134;28;20053;-73
2021/07/31 03:53:17;;;;;;;5.60;2.75;;;17.90;99.90;;;;;;4136456;28;20030;-72
2021/07/31 03:55:17;;;;;;;4.80;1.70;;;17.80;99.90;;;;;;4137118;28;20041;-72
2021/07/31 03:57:18;;;;;;;8.38;2.15;;;17.90;99.90;;;;;;4135931;28;20054;-72
2021/07/31 03:59:19;;;;;;;4.90;1.90;;;17.90;99.90;;;;;;4130222;28;20058;-73
2021/07/31 04:01:26;;;;;;;5.85;2.10;;;17.80;99.90;;;;;;4142065;28;20664;-72
2021/07/31 04:03:27;;;;;;;5.15;1.85;;;17.80;99.90;;;;;;4136409;28;20142;-72
2021/07/31 04:05:28;;;;;;;3.55;1.45;;;17.80;99.90;;;;;;4134813;28;20646;-72
2021/07/31 04:07:28;;;;;;;6.68;2.10;;;17.80;99.90;;;;;;4138211;28;20034;-73
2021/07/31 04:09:29;;;;;;;5.85;1.98;;;17.80;99.90;;;;;;4136959;28;20497;-72
2021/07/31 04:11:30;;;;;;;8.30;2.40;;;17.80;99.90;;;;;;4135224;28;20109;-73
2021/07/31 04:13:30;;;;;;;5.57;1.85;;;17.80;99.90;;;;;;4141341;28;20054;-73
2021/07/31 04:15:31;;;;;;;4.35;1.75;;;17.70;99.90;;;;;;4114311;28;20045;-73
2021/07/31 04:17:32;;;;;;;10.82;1.95;;;17.70;99.90;;;;;;4139249;28;20030;-72
2021/07/31 04:19:32;;;;;;;8.98;2.00;;;17.80;99.90;;;;;;4136948;28;20109;-73
2021/07/31 04:21:33;;;;;;;3.60;1.58;;;17.80;99.90;;;;;;4119904;28;20396;-73
2021/07/31 04:23:35;;;;;;;5.00;1.80;;;17.80;99.90;;;;;;4132918;28;20034;-73
2021/07/31 04:25:38;;;;;;;9.15;2.03;;;17.80;99.90;;;;;;4135214;28;20034;-73
2021/07/31 04:27:38;;;;;;;;;;;17.80;99.90;;;;;;4119517;28;20133;-72
2021/07/31 04:29:39;;;;;;;3.53;1.73;;;17.90;99.90;;;;;;4134941;28;20373;-73
2021/07/31 04:31:40;;;;;;;4.07;2.05;;;17.80;99.90;;;;;;4118271;28;20521;-73
2021/07/31 04:33:41;;;;;;;3.05;1.70;;;17.80;99.90;;;;;;4130510;28;20121;-72
2021/07/31 04:35:42;;;;;;;6.55;1.95;;;17.80;99.90;;;;;;4114263;28;20125;-73
2021/07/31 04:37:43;;;;;;;5.28;2.20;;;17.80;99.90;;;;;;4116560;28;20031;-73
2021/07/31 04:39:43;;;;;;;9.18;2.30;;;17.80;99.90;;;;;;4135866;28;20610;-72
2021/07/31 04:41:44;;;;;;;5.22;2.05;;;17.80;99.90;;;;;;4134639;28;20034;-73
2021/07/31 04:43:45;;;;;;;4.25;1.75;;;17.80;99.90;;;;;;4120710;28;20126;-73
2021/07/31 04:45:45;;;;;;;4.68;2.20;;;17.80;99.90;;;;;;4130220;28;20042;-73
2021/07/31 04:47:46;;;;;;;6.18;2.15;;;17.80;99.90;;;;;;4117486;28;20408;-73
2021/07/31 04:49:46;;;;;;;7.70;2.05;;;17.80;99.90;;;;;;4116664;28;20031;-72
2021/07/31 04:51:47;;;;;;;4.45;1.95;;;17.80;99.90;;;;;;4128875;28;20459;-72
2021/07/31 04:53:48;;;;;;;6.03;2.40;;;17.80;99.90;;;;;;4095155;28;20066;-72
2021/07/31 04:55:48;;;;;;;3.63;2.00;;;17.70;99.90;;;;;;4129018;28;20034;-72
2021/07/31 04:57:49;;;;;;;4.45;1.90;;;17.70;99.90;;;;;;4140265;28;20501;-73
2021/07/31 04:59:50;;;;;;;4.28;2.08;;;17.80;99.90;;;;;;4124377;28;20120;-72
2021/07/31 05:01:50;;;;;;;8.02;2.22;;;17.80;99.90;;;;;;4118816;28;20459;-72
2021/07/31 05:03:51;;;;;;;6.80;1.98;;;17.80;99.90;;;;;;4134265;28;20041;-72
2021/07/31 05:05:51;;;;;;;3.88;1.80;;;17.80;99.90;;;;;;4128789;28;20054;-72
2021/07/31 05:07:52;;;;;;;9.18;2.65;;;17.80;99.90;;;;;;4116156;28;20032;-72
2021/07/31 05:09:52;;;;;;;5.57;2.08;;;17.80;99.90;;;;;;4123912;28;20546;-72
2021/07/31 05:11:53;;;;;;;6.80;1.52;;;17.80;99.90;;;;;;4133263;28;20022;-73
2021/07/31 05:13:54;;;;;;;5.10;1.88;;;17.80;99.90;;;;;;4134061;28;20057;-72
2021/07/31 05:15:54;;;;;;;6.57;2.20;;;17.80;99.90;;;;;;4128121;28;20053;-72
2021/07/31 05:17:55;;;;;;;5.20;1.98;;;17.80;99.90;;;;;;4134392;28;20042;-72
2021/07/31 05:19:55;;;;;;;7.72;2.00;;;17.80;99.90;;;;;;4115635;28;20242;-73
2021/07/31 05:21:56;;;;;;;4.05;1.88;;;17.80;99.90;;;;;;4138932;28;20034;-72
2021/07/31 05:23:56;;;;;;;5.03;1.60;;;17.80;99.90;;;;;;4128209;28;20525;-72
2021/07/31 05:25:57;;;;;;;4.32;1.70;;;17.80;99.90;;;;;;4128187;28;20049;-72
2021/07/31 05:27:58;;;;;;;3.20;1.80;;;17.80;99.90;;;;;;4113531;28;20847;-73
2021/07/31 05:29:58;;;;;;;5.97;2.25;;;17.80;99.90;;;;;;4118516;28;20031;-72
2021/07/31 05:31:59;;;;;;;4.15;1.67;;;17.80;99.90;;;;;;4143210;28;20032;-72
2021/07/31 05:34:02;;;;;;;5.45;1.85;;;17.80;99.90;;;;;;4125984;28;20510;-73
2021/07/31 05:36:09;;;;;;;6.15;2.30;;;17.70;99.90;;;;;;4143522;28;20038;-72
2021/07/31 05:38:10;;;;;;;5.68;1.98;;;17.70;99.90;;;;;;4123894;28;20039;-73
2021/07/31 05:40:11;;;;;;;4.63;1.80;;;17.70;99.90;;;;;;4111043;28;20097;-72
2021/07/31 05:42:12;;;;;;;4.90;2.00;;;17.70;99.90;;;;;;4127737;28;20041;-72
2021/07/31 05:44:12;;;;;;;7.80;2.38;;;17.70;99.90;;;;;;4142130;28;20038;-72
2021/07/31 05:46:18;;;;;;;5.75;2.33;;;17.70;99.90;;;;;;4126037;28;20545;-72
2021/07/31 05:48:18;;;;;;;4.85;2.20;;;17.70;99.90;;;;;;4111806;28;20039;-72
2021/07/31 05:50:19;;;;;;;4.25;1.85;;;17.70;99.90;;;;;;4127473;28;20096;-72
2021/07/31 05:52:24;;;;;;;4.95;1.80;;;17.70;99.90;;;;;;4127624;28;20361;-72
2021/07/31 05:54:24;;;;;;;4.55;2.08;;;17.70;99.90;;;;;;4135915;28;20054;-72
2021/07/31 05:56:25;;;;;;;5.07;1.80;;;17.70;99.90;;;;;;4131175;28;20034;-72
2021/07/31 05:58:26;;;;;;;4.50;2.13;;;17.70;99.90;;;;;;4132484;28;20340;-72
2021/07/31 06:00:27;;;;;;;3.15;1.88;;;17.80;99.90;;;;;;4127255;28;20062;-73
2021/07/31 06:02:27;;;;;;;7.38;1.85;;;17.80;99.90;;;;;;4133818;28;20511;-73
2021/07/31 06:04:28;;;;;;;6.55;2.30;;;17.80;99.90;;;;;;4135028;28;20139;-72
2021/07/31 06:06:28;;;;;;;8.73;2.20;;;17.80;99.90;;;;;;4114846;28;20046;-73
2021/07/31 06:08:29;;;;;;;6.15;1.92;;;17.80;99.90;;;;;;4135497;28;20126;-73
2021/07/31 06:10:30;;;;;;;4.75;2.17;;;17.70;99.90;;;;;;4127210;28;20030;-73
2021/07/31 06:12:31;;;;;;;9.05;2.20;;;17.80;99.90;;;;;;4109340;28;20126;-73
2021/07/31 06:14:36;;;;;;;6.95;1.80;;;17.70;99.90;;;;;;4129556;28;20544;-73
2021/07/31 06:16:37;;;;;;;5.70;2.10;;;17.80;99.90;;;;;;4131375;28;20345;-73
2021/07/31 06:18:38;;;;;;;6.15;2.20;;;17.80;99.90;;;;;;4109389;28;20034;-73
2021/07/31 06:20:39;;;;;;;6.35;2.05;;;17.90;99.90;;;;;;4132828;28;20036;-73
2021/07/31 06:22:40;;;;;;;7.68;2.63;;;17.90;99.90;;;;;;4126884;28;20070;-73
2021/07/31 06:24:40;;;;;;;6.07;2.45;;;17.90;99.90;;;;;;4134765;28;20034;-73
2021/07/31 06:26:41;;;;;;;5.35;2.10;;;17.80;99.90;;;;;;4127182;28;20058;-73
2021/07/31 06:28:42;;;;;;;5.38;1.75;;;17.80;99.90;;;;;;4126985;28;20122;-73
2021/07/31 06:30:43;;;;;;;6.18;1.80;;;17.80;99.90;;;;;;4127159;28;20030;-73
2021/07/31 06:32:44;;;;;;;6.70;2.22;;;17.90;99.90;;;;;;4127186;28;20117;-73
2021/07/31 06:34:44;;;;;;;9.27;2.40;;;18.00;99.90;;;;;;4109399;28;20085;-73
2021/07/31 06:36:45;;;;;;;4.95;2.20;;;17.90;99.90;;;;;;4109698;28;20090;-73
2021/07/31 06:38:46;;;;;;;3.95;2.22;;;17.80;99.90;;;;;;4108493;28;20081;-73
2021/07/31 06:40:47;;;;;;;3.38;1.75;;;17.80;99.90;;;;;;4108910;28;20046;-73
2021/07/31 06:42:47;;;;;;;4.18;1.85;;;17.80;99.90;;;;;;4135204;28;20088;-73
2021/07/31 06:44:48;;;;;;;3.78;1.67;;;17.90;99.90;;;;;;4126759;28;20058;-73
2021/07/31 06:46:48;;;;;;;3.28;1.90;;;17.80;99.90;;;;;;4126624;28;20062;-73
2021/07/31 06:48:49;;;;;;;5.68;2.08;;;17.90;99.90;;;;;;4109304;28;20034;-73
2021/07/31 06:50:50;;;;;;;5.72;2.22;;;17.90;99.90;;;;;;4109833;28;20031;-73
2021/07/31 06:52:50;;;;;;;8.15;2.05;;;17.90;99.90;;;;;;4117119;28;20035;-73
2021/07/31 06:54:51;;;;;;;6.93;1.98;;;17.90;99.90;;;;;;4117730;28;20061;-73
2021/07/31 06:56:51;;;;;;;4.20;1.73;;;18.00;99.90;;;;;;4126200;28;20046;-73
2021/07/31 06:58:52;;;;;;;3.58;1.63;;;18.00;99.90;;;;;;4114495;28;20030;-73
2021/07/31 07:00:53;;;;;;;3.80;1.92;;;18.00;99.90;;;;;;4131822;28;20038;-73
2021/07/31 07:02:54;;;;;;;5.28;2.35;;;18.00;99.90;;;;;;4130351;28;20483;-72
2021/07/31 07:04:55;;;;;;;4.03;1.80;;;18.10;99.90;;;;;;4117297;28;20031;-73
2021/07/31 07:06:55;;;;;;;8.23;2.13;;;18.10;99.90;;;;;;4109490;28;20139;-73
2021/07/31 07:08:57;;;;;;;5.43;1.77;;;18.10;99.90;;;;;;4109711;28;20042;-73
2021/07/31 07:10:57;;;;;;;4.75;1.80;;;18.10;99.90;;;;;;4109119;28;20039;-73
2021/07/31 07:12:58;;;;;;;4.63;1.85;;;18.20;99.90;;;;;;4108329;28;20038;-74
2021/07/31 07:14:58;;;;;;;8.68;1.77;;;18.20;99.90;;;;;;4126717;28;20022;-73
2021/07/31 07:17:04;;;;;;;3.63;1.70;;;18.20;99.90;;;;;;4131664;28;20514;-74
2021/07/31 07:19:05;;;;;;;3.60;1.98;;;18.20;99.90;;;;;;4108013;28;20035;-73
2021/07/31 07:21:10;;;;;;;6.70;2.40;;;18.20;99.90;;;;;;4125395;28;20039;-73
2021/07/31 07:23:11;;;;;;;7.50;2.38;;;18.30;99.90;;;;;;4132156;28;20033;-73
2021/07/31 07:25:12;;;;;;;3.08;1.70;;;18.20;99.90;;;;;;4131701;28;20428;-73
2021/07/31 07:27:13;;;;;;;4.28;2.00;;;18.30;99.90;;;;;;4143083;28;20038;-73
2021/07/31 07:29:14;;;;;;;7.70;2.35;;;18.40;99.90;;;;;;4127316;28;20042;-73
2021/07/31 07:31:15;;;;;;;8.27;1.90;;;18.40;99.90;;;;;;4127895;28;20034;-73
2021/07/31 07:33:16;;;;;;;4.97;1.60;;;18.50;99.90;;;;;;4111026;28;20557;-73
2021/07/31 07:35:17;;;;;;;5.10;1.83;;;18.50;99.90;;;;;;4132207;28;20042;-73
2021/07/31 07:37:18;;;;;;;6.75;2.30;;;18.50;99.90;;;;;;4115469;28;20039;-73
2021/07/31 07:39:18;;;;;;;6.18;2.03;;;18.50;99.90;;;;;;4130766;28;20088;-73
2021/07/31 07:41:19;;;;;;;5.28;1.80;;;18.50;99.90;;;;;;4134920;28;20251;-73
2021/07/31 07:43:20;;;;;;;3.47;1.70;;;18.50;99.90;;;;;;4136554;28;20033;-73
2021/07/31 07:45:21;;;;;;;3.50;1.60;;;18.60;99.90;;;;;;4133235;28;20042;-73
2021/07/31 07:47:21;;;;;;;5.55;2.10;;;18.60;99.90;;;;;;4134202;28;20566;-73
2021/07/31 07:49:22;;;;;;;3.38;1.50;;;18.60;99.90;;;;;;4113003;28;20031;-73
2021/07/31 07:51:23;;;;;;;5.30;1.90;;;18.70;99.90;;;;;;4113462;28;20023;-73
2021/07/31 07:53:24;;;;;;;5.70;2.08;;;18.70;99.90;;;;;;4127736;28;20037;-73
2021/07/31 07:55:24;;;;;;;4.25;1.83;;;18.70;99.90;;;;;;4136258;28;20034;-73
2021/07/31 07:57:26;;;;;;;4.45;1.90;;;18.80;99.90;;;;;;4123948;28;20057;-73
2021/07/31 07:59:27;;;;;;;2.38;1.40;;;18.70;99.90;;;;;;4139707;28;20045;-73
2021/07/31 08:01:29;;;;;;;7.07;1.90;;;18.80;99.90;;;;;;4111040;28;20035;-73
2021/07/31 08:03:29;;;;;;;4.03;1.58;;;18.80;99.90;;;;;;4128785;28;20049;-73
2021/07/31 08:05:30;;;;;;;2.88;1.58;;;18.80;99.90;;;;;;4118753;28;20043;-73
2021/07/31 08:07:31;;;;;;;4.00;1.63;;;18.80;99.90;;;;;;4110506;28;20035;-73
2021/07/31 08:09:31;;;;;;;5.30;1.73;;;18.80;99.90;;;;;;4128073;28;20034;-73
2021/07/31 08:11:33;;;;;;;9.38;2.22;;;18.90;99.90;;;;;;4127338;28;21630;-73
2021/07/31 08:13:34;;;;;;;4.53;1.67;;;18.90;99.90;;;;;;4136067;28;20482;-73
2021/07/31 08:15:35;;;;;;;4.35;1.67;;;19.00;99.90;;;;;;4118214;28;20037;-73
2021/07/31 08:17:36;;;;;;;2.97;1.50;;;19.00;99.90;;;;;;4127871;28;20383;-73
2021/07/31 08:19:37;;;;;;;3.13;1.55;;;19.10;99.90;;;;;;4129137;28;20643;-73
2021/07/31 08:21:38;;;;;;;5.47;1.58;;;19.10;99.90;;;;;;4112788;28;20027;-74
2021/07/31 08:23:41;;;;;;;2.97;1.50;;;19.20;99.90;;;;;;4128871;28;20041;-73
2021/07/31 08:25:42;;;;;;;8.15;2.10;;;19.20;99.90;;;;;;4117101;28;20035;-73
2021/07/31 08:27:42;;;;;;;5.63;1.50;;;19.20;99.90;;;;;;4133798;28;20027;-73
2021/07/31 08:30:04;;;;;;;3.58;1.77;;;19.30;99.90;;;;;;4130852;28;20224;-73
2021/07/31 08:32:23;;;;;;;3.72;1.60;;;19.40;99.90;;;;;;4128296;28;20097;-73
2021/07/31 08:34:23;;;;;;;6.30;2.05;;;19.50;99.90;;;;;;4092992;28;20525;-73
2021/07/31 08:36:24;;;;;;;5.00;2.05;;;19.60;99.90;;;;;;4136495;28;20045;-73
2021/07/31 08:38:24;;;;;;;6.72;1.58;;;19.70;99.90;;;;;;4135922;28;20034;-73
2021/07/31 08:40:26;;;;;;;4.05;1.83;;;19.70;99.90;;;;;;4133069;28;20034;-73
2021/07/31 08:42:26;;;;;;;2.85;1.45;;;19.80;99.90;;;;;;4116576;28;20459;-73
2021/07/31 08:44:27;;;;;;;3.17;1.58;;;19.80;99.90;;;;;;4116433;28;20050;-73
2021/07/31 08:46:28;;;;;;;5.65;1.60;;;19.80;99.90;;;;;;4134684;28;20041;-73
2021/07/31 08:48:29;;;;;;;4.55;1.80;;;19.90;99.90;;;;;;4148152;28;20409;-73
2021/07/31 08:50:31;;;;;;;6.05;1.80;;;19.90;99.90;;;;;;4120803;28;20482;-73
2021/07/31 08:52:33;;;;;;;3.33;1.52;;;19.80;99.90;;;;;;4119203;28;20039;-73
2021/07/31 08:54:38;;;;;;;5.00;1.58;;;19.90;99.90;;;;;;4130298;28;20038;-73
2021/07/31 08:56:42;;;;;;;3.00;1.30;;;19.80;99.90;;;;;;4139247;28;20046;-71
2021/07/31 08:58:43;;;;;;;4.00;1.55;;;19.90;99.90;;;;;;4131840;28;20129;-71
2021/07/31 09:00:44;;;;;;;7.07;1.95;;;19.90;99.90;;;;;;4107666;28;20031;-71
2021/07/31 09:02:46;;;;;;;4.47;2.00;;;19.80;99.90;;;;;;4132245;28;20058;-72
2021/07/31 09:04:50;;;;;;;3.35;1.90;;;19.70;99.90;;;;;;4127928;28;20034;-73
2021/07/31 09:06:50;;;;;;;7.38;1.95;;;19.70;99.90;;;;;;4125177;28;20038;-71
2021/07/31 09:08:52;;;;;;;6.03;2.05;;;19.70;99.90;;;;;;4133061;28;20060;-71
2021/07/31 09:10:53;;;;;;;3.30;1.48;;;19.60;99.90;;;;;;4112395;28;20042;-76
2021/07/31 09:12:59;;;;;;;3.55;1.33;;;19.60;99.90;;;;;;4128933;28;20068;-71
2021/07/31 09:15:00;;;;;;;7.60;2.13;;;19.70;99.90;;;;;;4112786;28;20046;-71
2021/07/31 09:17:01;;;;;;;5.70;1.80;;;19.70;99.90;;;;;;4130460;28;20060;-72
2021/07/31 09:19:13;;;;;;;3.63;2.03;;;19.80;99.90;;;;;;4107732;28;20113;-71
2021/07/31 09:21:16;;;;;;;3.58;1.73;;;19.80;99.90;;;;;;4115836;28;20042;-71
2021/07/31 09:23:16;;;;;;;;;;;20.00;99.90;;;;;;4122615;28;20069;-71
2021/07/31 09:25:17;;;;;;;4.78;1.13;;;20.00;99.90;;;;;;4141348;28;19929;-71
2021/07/31 09:27:27;;;;;;;2.58;1.42;;;20.10;99.90;;;;;;4133373;28;20042;-71
2021/07/31 09:29:31;;;;;;;3.42;1.77;;;20.20;99.90;;;;;;4126166;28;20042;-71
2021/07/31 09:31:32;;;;;;;3.90;1.70;;;20.30;99.90;;;;;;4112500;28;20219;-72
2021/07/31 09:33:33;;;;;;;2.45;1.63;;;20.40;99.90;;;;;;4117757;28;20039;-72
2021/07/31 09:35:34;;;;;;;5.03;1.83;;;20.50;99.90;;;;;;4128643;28;20489;-72
2021/07/31 09:37:46;;;;;;;2.75;1.50;;;20.60;99.90;;;;;;4123676;28;20042;-71
2021/07/31 09:40:00;;;;;;;4.63;2.03;;;20.70;99.90;;;;;;4125593;28;20614;-72
2021/07/31 09:42:00;;;;;;;3.55;1.70;;;20.80;99.90;;;;;;4129793;28;20474;-72
2021/07/31 09:44:07;;;;;;;5.63;1.48;;;20.90;99.90;;;;;;4113711;28;20037;-72
2021/07/31 09:46:39;;;;;;;3.05;1.40;;;21.00;99.90;;;;;;4134172;28;20364;-72
2021/07/31 09:48:58;;;;;;;4.22;1.50;;;21.20;99.90;;;;;;4123623;28;20406;-72
2021/07/31 09:50:59;;;;;;;3.63;1.70;;;21.30;99.90;;;;;;4112684;28;20047;-72
2021/07/31 09:53:15;;;;;;;3.33;1.17;;;21.40;99.90;;;;;;4128315;28;20061;-72
2021/07/31 09:55:16;;;;;;;4.45;1.50;;;21.40;99.90;;;;;;4110221;28;20530;-72
2021/07/31 09:57:18;;;;;;;3.80;1.70;;;21.30;99.90;;;;;;4128176;28;20038;-71
2021/07/31 09:59:23;;;;;;;10.02;1.75;;;21.30;99.90;;;;;;4127732;28;20034;-72
2021/07/31 10:01:26;;;;;;;2.40;1.55;;;21.30;99.90;;;;;;4126491;28;20438;-72
2021/07/31 10:03:27;;;;;;;5.78;1.55;;;21.30;99.90;;;;;;4126792;28;20045;-72
2021/07/31 10:05:29;;;;;;;6.68;1.50;;;21.40;99.90;;;;;;4127681;28;20049;-72
2021/07/31 10:07:29;;;;;;;2.85;1.65;;;21.40;99.90;;;;;;4125852;28;20541;-72
2021/07/31 10:09:32;;;;;;;5.88;1.63;;;21.40;99.90;;;;;;4129069;28;20026;-72
2021/07/31 10:11:35;;;;;;;4.68;1.52;;;21.20;99.90;;;;;;4131221;28;20042;-72
2021/07/31 10:13:37;;;;;;;2.13;1.30;;;21.10;99.90;;;;;;4126587;28;20042;-72
2021/07/31 10:15:39;;;;;;;2.45;1.50;;;21.10;99.90;;;;;;4127568;28;20053;-72
2021/07/31 10:17:41;;;;;;;2.05;1.38;;;21.20;99.90;;;;;;4127097;28;20033;-72
2021/07/31 10:19:44;;;;;;;3.47;1.30;;;21.30;99.90;;;;;;4110790;28;20503;-72
2021/07/31 10:21:52;;;;;;;3.15;1.40;;;21.20;99.90;;;;;;4125477;28;20038;-72
2021/07/31 10:23:55;;;;;;;3.00;1.40;;;21.20;99.90;;;;;;4112067;28;20031;-72
2021/07/31 10:26:10;;;;;;;2.72;1.60;;;21.20;99.90;;;;;;4129378;28;20112;-71
2021/07/31 10:28:28;;;;;;;2.38;1.15;;;21.20;99.90;;;;;;4126159;28;20030;-72
2021/07/31 10:30:33;;;;;;;2.28;1.13;;;21.20;99.90;;;;;;4116310;28;20042;-71
2021/07/31 10:32:37;;;;;;;2.70;1.20;;;21.30;99.90;;;;;;4131699;28;20030;-71
2021/07/31 10:34:53;;;;;;;2.10;1.20;;;21.30;99.90;;;;;;4111310;28;20030;-71